Aviation Digital Data Service (ADDS)

Output produced by TAFs form (0025 UTC 27 May 2017)
found at http://www.aviationweather.gov/adds/tafs/
 
METAR text: RJCN 270011Z 07005KT 030V090 4000 -DZ BR FEW003 SCT005 BKN006 09/09 Q1011 RMK 1ST003 3ST005 7ST006 A2987
Conditions at: RJCN (NAKASHIBETSU ARP, JP) observed 0011 UTC 27 May 2017
Temperature: 9.0°C (48°F)
Dewpoint: 9.0°C (48°F) [RH = 100%]
Pressure (altimeter): 29.85 inches Hg (1011.0 mb)
Winds: from the ENE (70 degrees) at 6 MPH (5 knots; 2.6 m/s)
Visibility: 2.49 miles (4.01 km)
Ceiling: 600 feet AGL
Clouds: few clouds at 300 feet AGL
scattered clouds at 500 feet AGL
broken clouds at 600 feet AGL
Weather: -DZ BR  (light drizzle, mist)